Valenciennes-Denain Airfield

LFAV · Nord-Passo di Calais-Piccardia, Francia

6 ottobre 2022

Tempo Codice Tempo metereologico Temp. Vista Base nuvolosa Vento METAR/SPECI
17:30
V
18 °C 10 km+ - 220° 220° 10 kt METAR LFQQ 061530Z AUTO 22010KT CAVOK 18/08 Q1030 NOSIG
17:00
V
18 °C 10 km+ - 230° 230° 10 kt METAR LFQQ 061500Z AUTO 23010KT CAVOK 18/08 Q1030 NOSIG
16:30
V
18 °C 10 km+ - 230° 230° 11 kt METAR LFQQ 061430Z AUTO 23011KT 9999 FEW045 18/08 Q1030 NOSIG
16:00
V
18 °C 10 km+ - 230° 230° 7 kt METAR LFQQ 061400Z AUTO 23007KT 200V260 9999 FEW044 18/09 Q1030 NOSIG
15:30
V
18 °C 10 km+ 4.600 ft 260° 260° 9 kt METAR LFQQ 061330Z AUTO 26009KT 190V280 9999 BKN046 18/08 Q1030 NOSIG
15:00
V
17 °C 10 km+ 4.800 ft 260° 260° 10 kt METAR LFQQ 061300Z AUTO 26010KT 240V300 9999 SCT042 BKN048 17/08 Q1030 NOSIG
14:30
V
17 °C 10 km+ 4.500 ft 250° 250° 9 kt METAR LFQQ 061230Z AUTO 25009KT 210V280 9999 SCT038 BKN045 17/08 Q1031 NOSIG
14:00
V
18 °C 10 km+ 3.800 ft 230° 230° 10 kt METAR LFQQ 061200Z AUTO 23010KT 190V260 9999 BKN038 BKN046 18/09 Q1031 NOSIG
13:30
V
17 °C 10 km+ 3.500 ft 230° 230° 10 kt METAR LFQQ 061130Z AUTO 23010KT 9999 BKN035 17/08 Q1031 NOSIG
13:00
V
16 °C 10 km+ 3.200 ft 220° 220° 9 kt METAR LFQQ 061100Z AUTO 22009KT 9999 BKN032 BKN039 16/09 Q1031 NOSIG
12:30
V
16 °C 10 km+ 3.300 ft 220° 220° 9 kt METAR LFQQ 061030Z AUTO 22009KT 9999 BKN033 16/09 Q1031 NOSIG
12:00
V
16 °C 10 km+ - 240° 240° 7 kt METAR LFQQ 061000Z AUTO 24007KT 180V270 9999 FEW031 16/09 Q1031 NOSIG
11:30
V
16 °C 10 km+ - 230° 230° 7 kt METAR LFQQ 060930Z AUTO 23007KT 200V260 CAVOK 16/09 Q1031 NOSIG
11:00
V
15 °C 10 km+ - 240° 240° 7 kt METAR LFQQ 060900Z AUTO 24007KT CAVOK 15/09 Q1031 NOSIG
10:30
V
14 °C 10 km+ - 220° 220° 8 kt METAR LFQQ 060830Z AUTO 22008KT CAVOK 14/10 Q1030 NOSIG
10:00
V
12 °C 10 km+ - 220° 220° 6 kt METAR LFQQ 060800Z AUTO 22006KT CAVOK 12/09 Q1030 NOSIG
09:30
V
11 °C 10 km+ - Var 000° 0 kt METAR LFQQ 060730Z AUTO 00000KT CAVOK 11/09 Q1030 BECMG 26010KT
09:00
V
9 °C 10 km+ - Var 000° 0 kt METAR LFQQ 060700Z AUTO 00000KT CAVOK 09/08 Q1029 BECMG 26010KT
08:30
V
8 °C 10 km+ - 200° 200° 2 kt METAR LFQQ 060630Z AUTO 20002KT CAVOK 08/07 Q1029 BECMG 26010KT
08:00
V
9 °C 10 km+ - Var Var 1 kt METAR LFQQ 060600Z AUTO VRB01KT CAVOK 09/07 Q1029 NOSIG
07:30
V
9 °C 10 km+ - Var Var 2 kt METAR LFQQ 060530Z AUTO VRB02KT CAVOK 09/07 Q1028 NOSIG
07:00
V
9 °C 10 km+ - Var Var 1 kt METAR LFQQ 060500Z AUTO VRB01KT CAVOK 09/07 Q1028 NOSIG
06:30
V
10 °C 10 km+ - Var Var 2 kt METAR LFQQ 060430Z AUTO VRB02KT CAVOK 10/07 Q1028 NOSIG
06:00
V
9 °C 10 km+ - 210° 210° 5 kt METAR LFQQ 060400Z AUTO 21005KT CAVOK 09/07 Q1027 NOSIG
05:30
V
9 °C 10 km+ - 190° 190° 3 kt METAR LFQQ 060330Z AUTO 19003KT CAVOK 09/07 Q1027 NOSIG
05:00
V
10 °C 10 km+ - 190° 190° 4 kt METAR LFQQ 060300Z AUTO 19004KT CAVOK 10/07 Q1026 NOSIG
04:30
V
11 °C 10 km+ - 200° 200° 4 kt METAR LFQQ 060230Z AUTO 20004KT CAVOK 11/08 Q1026 NOSIG
04:00
V
11 °C 10 km+ - 220° 220° 5 kt METAR LFQQ 060200Z AUTO 22005KT CAVOK 11/08 Q1026 NOSIG
03:30
V
11 °C 10 km+ - 220° 220° 6 kt METAR LFQQ 060130Z AUTO 22006KT CAVOK 11/09 Q1026 NOSIG
03:00
V
12 °C 10 km+ - 220° 220° 7 kt METAR LFQQ 060100Z AUTO 22007KT CAVOK 12/09 Q1025 NOSIG
02:30
V
12 °C 10 km+ - 220° 220° 5 kt METAR LFQQ 060030Z AUTO 22005KT CAVOK 12/09 Q1025 NOSIG
02:00
V
12 °C 10 km+ - 230° 230° 6 kt METAR LFQQ 060000Z AUTO 23006KT CAVOK 12/09 Q1024 NOSIG
01:30
V
13 °C 10 km+ - 230° 230° 6 kt METAR LFQQ 052330Z AUTO 23006KT CAVOK 13/10 Q1024 NOSIG
01:00
V
13 °C 10 km+ - 240° 240° 7 kt METAR LFQQ 052300Z AUTO 24007KT CAVOK 13/10 Q1023 NOSIG
00:30
V
14 °C 10 km+ - 250° 250° 11 kt METAR LFQQ 052230Z AUTO 25011KT CAVOK 14/10 Q1023 NOSIG
00:00
V
15 °C 10 km+ - 250° 250° 10 kt METAR LFQQ 052200Z AUTO 25010KT CAVOK 15/11 Q1022 NOSIG

5 ottobre 2022

Tempo Codice Tempo metereologico Temp. Vista Base nuvolosa Vento METAR/SPECI
23:30
V
14 °C 10 km+ - 250° 250° 11 kt METAR LFQQ 052130Z AUTO 25011KT CAVOK 14/11 Q1021 NOSIG
23:00
V
15 °C 10 km+ - 250° 250° 14 kt METAR LFQQ 052100Z AUTO 25014KT CAVOK 15/12 Q1021 TEMPO 27017G30KT
22:30
V
15 °C 10 km+ 5.400 ft 250° 250° 15 kt METAR LFQQ 052030Z AUTO 25015KT 9999 FEW022 SCT045 BKN054 15/12 Q1020 TEMPO 27017G30KT
22:00
V
16 °C 10 km+ 6.800 ft 240° 240° 14 kt METAR LFQQ 052000Z AUTO 24014KT 9999 FEW019 OVC068 16/13 Q1019 TEMPO 27017G30KT
21:30
V
16 °C 10 km+ - 240° 240° 13 kt METAR LFQQ 051930Z AUTO 24013KT CAVOK 16/14 Q1019 TEMPO 27017G30KT
21:00
V
16 °C 10 km+ - 230° 230° 13 kt METAR LFQQ 051900Z AUTO 23013KT CAVOK 16/14 Q1018 TEMPO 27017G30KT 3000 RA BKN010 OVC015
20:30
V
16 °C 10 km+ 5.000 ft 240° 240° 13 kt METAR LFQQ 051830Z AUTO 24013KT 9999 FEW021 SCT039 OVC050 16/13 Q1018 TEMPO 27017G30KT 3000 RA BKN010 OVC015
20:00
I
18 °C 3 km 2.800 ft 220° 220° 17 kt METAR LFQQ 051800Z AUTO 22017KT 9999 3000 RA FEW019/// BKN028/// OVC034/// //////TCU 18/14 Q1017 TEMPO 24017G32KT 3000 RA BKN010 OVC015
19:30
V
19 °C 10 km+ 3.100 ft 210° 210° 16 kt METAR LFQQ 051730Z AUTO 21016KT 9999 OVC031 19/13 Q1016 TEMPO 24017G32KT 3000 RA BKN010 OVC015
19:00
V
19 °C 10 km+ 3.700 ft 200° 200° 13 kt METAR LFQQ 051700Z AUTO 20013KT 9999 OVC037 19/13 Q1015 TEMPO 27017G30KT 3000 RA BKN009 BKN015
18:30
V
19 °C 10 km+ 3.500 ft 200° 200° 13 kt METAR LFQQ 051630Z AUTO 20013KT 9999 BKN035 OVC060 19/13 Q1015 TEMPO 27017G30KT 3000 RA BKN009 BKN015
18:00
V
19 °C 10 km+ 3.800 ft 200° 200° 14 kt METAR LFQQ 051600Z AUTO 20014KT 9999 BKN038 OVC052 19/13 Q1015 BECMG 21016G28KT
17:30
V
19 °C 10 km+ 3.400 ft 200° 200° 13 kt METAR LFQQ 051530Z AUTO 20013KT 9999 OVC034 19/13 Q1015 BECMG 21016G28KT
17:00
V
19 °C 10 km+ 3.500 ft 210° 210° 15 - 25 kt METAR LFQQ 051500Z AUTO 21015G25KT 180V240 9999 OVC035 19/13 Q1015 NOSIG
16:30
V
18 °C 10 km+ 3.500 ft 210° 210° 17 kt METAR LFQQ 051430Z AUTO 21017KT 9999 OVC035 18/12 Q1015 BECMG 21016G28KT
16:00
V
18 °C 10 km+ 3.300 ft 200° 200° 17 kt METAR LFQQ 051400Z AUTO 20017KT 9999 BKN033 OVC039 18/12 Q1015 BECMG 21016G28KT
15:30
V
18 °C 10 km+ 3.200 ft 200° 200° 16 kt METAR LFQQ 051330Z AUTO 20016KT 9999 BKN032 OVC040 18/12 Q1015 BECMG 21016G28KT
15:00
V
17 °C 10 km+ 3.100 ft 210° 210° 13 kt METAR LFQQ 051300Z AUTO 21013KT 9999 OVC031 17/12 Q1015 BECMG 21016G28KT
14:30
M
17 °C 10 km+ 2.900 ft 210° 210° 15 kt METAR LFQQ 051230Z AUTO 21015KT 9999 BKN029 OVC034 17/12 Q1015 BECMG 21016G28KT
14:00
M
17 °C 10 km+ 2.900 ft 210° 210° 19 kt METAR LFQQ 051200Z AUTO 21019KT 9999 OVC029 17/11 Q1015 BECMG 21016G28KT
13:30
M
18 °C 10 km+ 2.900 ft 210° 210° 21 kt METAR LFQQ 051130Z AUTO 21021KT 9999 OVC029 18/12 Q1015 BECMG 23015G25KT
13:00
M
17 °C 10 km+ 2.600 ft 200° 200° 16 - 28 kt METAR LFQQ 051100Z AUTO 20016G28KT 9999 OVC026 17/12 Q1015 NOSIG
12:30
M
17 °C 10 km+ 2.300 ft 200° 200° 18 kt METAR LFQQ 051030Z AUTO 20018KT 9999 OVC023 17/12 Q1015 BECMG 23015G25KT
12:00
M
17 °C 10 km+ 2.500 ft 200° 200° 16 - 26 kt METAR LFQQ 051000Z AUTO 20016G26KT 9999 OVC025 17/12 Q1015 NOSIG
11:30
M
17 °C 10 km+ 2.900 ft 190° 190° 15 kt METAR LFQQ 050930Z AUTO 19015KT 9999 FEW021 OVC029 17/12 Q1015 BECMG 23015G25KT
11:00
M
16 °C 10 km+ 2.900 ft 180° 180° 13 kt METAR LFQQ 050900Z AUTO 18013KT 9999 OVC029 16/13 Q1015 BECMG 23015G25KT
10:30
V
16 °C 10 km+ 3.000 ft 180° 180° 11 kt METAR LFQQ 050830Z AUTO 18011KT 9999 OVC030 16/13 Q1015 BECMG 23015G25KT
10:00
V
15 °C 10 km+ 3.000 ft 180° 180° 10 kt METAR LFQQ 050800Z AUTO 18010KT 9999 OVC030 15/13 Q1015 TEMPO BKN012 BECMG 23015G25KT
09:30
V
15 °C 10 km+ 3.100 ft 180° 180° 10 kt METAR LFQQ 050730Z AUTO 18010KT 9999 OVC031 15/12 Q1015 TEMPO BKN012 BECMG 23015G25KT
09:00
V
15 °C 10 km+ 3.300 ft 190° 190° 8 kt METAR LFQQ 050700Z AUTO 19008KT 9999 OVC033 15/12 Q1016 TEMPO BKN012
08:30
V
15 °C 10 km+ 3.300 ft 190° 190° 11 kt METAR LFQQ 050630Z AUTO 19011KT 9999 OVC033 15/12 Q1015 TEMPO BKN012
08:00
V
15 °C 10 km+ 3.200 ft 190° 190° 10 kt METAR LFQQ 050600Z AUTO 19010KT 9999 OVC032 15/12 Q1015 TEMPO BKN012
07:30
M
15 °C 10 km+ 2.900 ft 200° 200° 10 kt METAR LFQQ 050530Z AUTO 20010KT 9999 OVC029 15/12 Q1015 TEMPO BKN009 BKN012
07:00
M
16 °C 10 km+ 2.800 ft 200° 200° 14 kt METAR LFQQ 050500Z AUTO 20014KT 9999 OVC028 16/11 Q1016 TEMPO BKN009 BKN012
06:30
M
15 °C 10 km+ 2.800 ft 200° 200° 12 kt METAR LFQQ 050430Z AUTO 20012KT 9999 OVC028 15/11 Q1016 TEMPO BKN009 BKN012
06:00
V
15 °C 10 km+ 3.000 ft 190° 190° 11 kt METAR LFQQ 050400Z AUTO 19011KT 9999 OVC030 15/11 Q1016 NOSIG
05:30
V
15 °C 10 km+ 3.100 ft 180° 180° 10 kt METAR LFQQ 050330Z AUTO 18010KT 9999 OVC031 15/11 Q1016 NOSIG
05:00
M
15 °C 10 km+ 2.900 ft 180° 180° 9 kt METAR LFQQ 050300Z AUTO 18009KT 9999 OVC029 15/11 Q1016 NOSIG
04:30
M
15 °C 10 km+ 2.800 ft 190° 190° 9 kt METAR LFQQ 050230Z AUTO 19009KT 9999 OVC028 15/11 Q1017 NOSIG
04:00
M
15 °C 10 km+ 2.700 ft 200° 200° 7 kt METAR LFQQ 050200Z AUTO 20007KT 9999 OVC027 15/12 Q1017 NOSIG
03:30
M
15 °C 10 km+ 2.700 ft 200° 200° 10 kt METAR LFQQ 050130Z AUTO 20010KT 9999 OVC027 15/12 Q1017 NOSIG
03:00
V
15 °C 10 km+ 3.000 ft 180° 180° 8 kt METAR LFQQ 050100Z AUTO 18008KT 9999 OVC030 15/12 Q1017 NOSIG
02:30
M
15 °C 10 km+ 2.900 ft 190° 190° 6 kt METAR LFQQ 050030Z AUTO 19006KT 9999 OVC029 15/13 Q1018 NOSIG
02:00
M
15 °C 10 km+ 2.800 ft 190° 190° 6 kt METAR LFQQ 050000Z AUTO 19006KT 9999 OVC028 15/12 Q1018 NOSIG
01:30
V
15 °C 10 km+ 3.000 ft 190° 190° 7 kt METAR LFQQ 042330Z AUTO 19007KT 9999 OVC030 15/13 Q1018 NOSIG
01:00
V
15 °C 10 km+ 3.400 ft 190° 190° 6 kt METAR LFQQ 042300Z AUTO 19006KT 9999 OVC034 15/13 Q1018 NOSIG
00:30
V
15 °C 10 km+ 3.300 ft 190° 190° 5 kt METAR LFQQ 042230Z AUTO 19005KT 9999 FEW026 OVC033 15/13 Q1018 NOSIG
00:00
M
15 °C 10 km+ 2.300 ft 200° 200° 5 kt METAR LFQQ 042200Z AUTO 20005KT 9999 BKN023 OVC031 15/13 Q1019 NOSIG

4 ottobre 2022

Tempo Codice Tempo metereologico Temp. Vista Base nuvolosa Vento METAR/SPECI
23:30
V
15 °C 10 km+ 3.300 ft 210° 210° 5 kt METAR LFQQ 042130Z AUTO 21005KT 9999 FEW021 OVC033 15/13 Q1019 NOSIG
23:00
V
15 °C 10 km+ 3.300 ft 200° 200° 4 kt METAR LFQQ 042100Z AUTO 20004KT 9999 FEW024 OVC033 15/13 Q1019 NOSIG
22:30
V
16 °C 10 km+ 3.300 ft 220° 220° 4 kt METAR LFQQ 042030Z AUTO 22004KT 9999 FEW027 OVC033 16/13 Q1019 NOSIG
22:00
V
16 °C 10 km+ 3.100 ft 220° 220° 5 kt METAR LFQQ 042000Z AUTO 22005KT 9999 OVC031 16/13 Q1019 NOSIG
21:30
V
16 °C 10 km+ 3.500 ft 180° 180° 4 kt METAR LFQQ 041930Z AUTO 18004KT 9999 FEW028 OVC035 16/13 Q1019 NOSIG
21:00
V
16 °C 10 km+ 3.600 ft 180° 180° 4 kt METAR LFQQ 041900Z AUTO 18004KT 9999 OVC036 16/13 Q1019 NOSIG
20:30
V
16 °C 10 km+ 3.700 ft 180° 180° 4 kt METAR LFQQ 041830Z AUTO 18004KT 9999 OVC037 16/13 Q1019 NOSIG
20:00
V
16 °C 10 km+ 3.700 ft 190° 190° 5 kt METAR LFQQ 041800Z AUTO 19005KT 9999 FEW012 OVC037 16/13 Q1019 NOSIG
19:30
V
17 °C 10 km+ 3.900 ft 190° 190° 7 kt METAR LFQQ 041730Z AUTO 19007KT 9999 SCT031 OVC039 17/13 Q1019 NOSIG
19:00
V
17 °C 10 km+ 3.600 ft 190° 190° 9 kt METAR LFQQ 041700Z AUTO 19009KT 9999 OVC036 17/13 Q1019 NOSIG
18:30
V
17 °C 10 km+ 3.700 ft 190° 190° 9 kt METAR LFQQ 041630Z AUTO 19009KT 9999 FEW027 OVC037 17/13 Q1019 NOSIG
18:00
V
18 °C 10 km+ 3.500 ft 190° 190° 9 kt METAR LFQQ 041600Z AUTO 19009KT 9999 OVC035 18/13 Q1019 NOSIG
17:30
V
18 °C 10 km+ 3.600 ft 180° 180° 10 kt METAR LFQQ 041530Z AUTO 18010KT 9999 FEW029 BKN036 18/13 Q1019 NOSIG
17:00
V
18 °C 10 km+ - 180° 180° 12 kt METAR LFQQ 041500Z AUTO 18012KT 9999 SCT028 SCT035 18/13 Q1019 NOSIG
Dati più vecchi

Noi e le terze parti seguiamo il tuo comportamento in internet sul nostro sito web con i cookie. Se continui, riteniamo che tu sia d'accordo con la nostra politica sui cookie. Per saperne di più